createdAt,value
2024-03-06T00:00:11.104Z,8.10
2024-03-06T00:03:13.801Z,8.13
2024-03-06T00:06:16.341Z,7.93
2024-03-06T00:09:19.852Z,7.95
2024-03-06T00:12:22.283Z,7.99
2024-03-06T00:15:25.283Z,8.05
2024-03-06T00:18:27.694Z,7.77
2024-03-06T00:21:30.734Z,7.79
2024-03-06T00:24:33.674Z,7.76
2024-03-06T00:27:36.333Z,7.78
2024-03-06T00:30:39.029Z,7.70
2024-03-06T00:33:41.998Z,7.71
2024-03-06T00:36:44.925Z,7.60
2024-03-06T00:39:47.662Z,7.48
2024-03-06T00:42:50.131Z,7.41
2024-03-06T00:45:52.708Z,7.54
2024-03-06T00:48:54.976Z,7.54
2024-03-06T00:51:59.691Z,7.46
2024-03-06T00:55:02.100Z,7.43
2024-03-06T00:58:05.011Z,7.37
2024-03-06T01:01:07.543Z,7.51
2024-03-06T01:04:10.669Z,7.48
2024-03-06T01:07:13.086Z,7.46
2024-03-06T01:10:15.704Z,7.36
2024-03-06T01:13:40.628Z,7.42
2024-03-06T01:17:07.831Z,7.35
2024-03-06T01:20:24.815Z,7.35
2024-03-06T01:23:31.099Z,7.39
2024-03-06T01:26:33.846Z,7.19
2024-03-06T01:29:36.665Z,7.08
2024-03-06T01:32:39.059Z,7.15
2024-03-06T01:35:42.003Z,7.12
2024-03-06T01:38:47.094Z,7.20
2024-03-06T01:41:52.024Z,7.11
2024-03-06T01:44:54.463Z,7.13
2024-03-06T01:47:57.120Z,7.00
2024-03-06T01:51:03.279Z,6.96
2024-03-06T01:54:06.354Z,6.91
2024-03-06T01:57:09.730Z,6.98
2024-03-06T02:00:14.874Z,6.95
2024-03-06T02:03:20.573Z,6.87
2024-03-06T02:06:23.524Z,6.84
2024-03-06T02:09:26.441Z,6.85
2024-03-06T02:12:28.914Z,6.84
2024-03-06T02:15:31.702Z,6.86
2024-03-06T02:18:34.376Z,6.82
2024-03-06T02:21:37.418Z,6.84
2024-03-06T02:24:46.133Z,6.72
2024-03-06T02:27:49.571Z,6.73
2024-03-06T02:30:52.271Z,6.62
2024-03-06T02:33:55.328Z,6.60
2024-03-06T02:36:57.748Z,6.59
2024-03-06T02:40:00.678Z,6.58
2024-03-06T02:43:03.607Z,6.59
2024-03-06T02:46:06.671Z,6.55
2024-03-06T02:49:09.018Z,6.56
2024-03-06T02:52:11.891Z,6.59
2024-03-06T02:55:14.245Z,6.54
2024-03-06T02:58:19.492Z,6.54
2024-03-06T03:01:21.868Z,6.52
2024-03-06T03:04:24.460Z,6.50
2024-03-06T03:07:26.782Z,6.54
2024-03-06T03:10:29.426Z,6.35
2024-03-06T03:13:31.996Z,6.41
2024-03-06T03:16:34.825Z,6.33
2024-03-06T03:19:37.916Z,6.25
2024-03-06T03:22:41.512Z,6.34
2024-03-06T03:25:44.223Z,6.33
2024-03-06T03:28:46.899Z,6.29
2024-03-06T03:31:49.607Z,6.22
2024-03-06T03:34:52.387Z,6.14
2024-03-06T03:37:56.613Z,6.19
2024-03-06T03:40:59.283Z,7.29
2024-03-06T03:44:01.709Z,6.70
2024-03-06T03:47:04.396Z,6.42
2024-03-06T03:50:14.217Z,6.20
2024-03-06T03:53:17.138Z,6.08
2024-03-06T03:56:19.660Z,6.07
2024-03-06T03:59:22.356Z,6.21
2024-03-06T04:02:24.763Z,6.06
2024-03-06T04:05:27.441Z,6.04
2024-03-06T04:08:29.742Z,6.08
2024-03-06T04:11:35.273Z,6.13
2024-03-06T04:14:37.929Z,6.15
2024-03-06T04:17:42.202Z,6.05
2024-03-06T04:20:44.729Z,5.81
2024-03-06T04:23:47.459Z,5.73
2024-03-06T04:26:49.859Z,5.91
2024-03-06T04:29:53.665Z,5.85
2024-03-06T04:32:56.141Z,5.81
2024-03-06T04:35:58.792Z,5.67
2024-03-06T04:39:01.188Z,5.69
2024-03-06T04:42:04.153Z,5.67
2024-03-06T04:45:16.101Z,5.53
2024-03-06T04:48:18.898Z,5.68
2024-03-06T04:51:21.189Z,5.58
2024-03-06T04:54:23.801Z,5.65
2024-03-06T04:57:26.192Z,5.44
2024-03-06T05:00:30.757Z,5.38
2024-03-06T06:00:26.186Z,6.69
2024-03-06T06:03:29.486Z,7.13
2024-03-06T06:06:31.926Z,7.14
2024-03-06T06:09:34.715Z,7.51
2024-03-06T06:12:37.107Z,7.70
2024-03-06T06:15:39.700Z,7.92
2024-03-06T06:18:44.110Z,8.10
2024-03-06T06:21:48.875Z,8.44
2024-03-06T06:24:51.334Z,8.70
2024-03-06T06:27:54.057Z,9.02
2024-03-06T06:30:56.657Z,9.20
2024-03-06T06:33:59.457Z,9.35
2024-03-06T06:37:01.889Z,9.76
2024-03-06T06:40:07.524Z,9.81
2024-03-06T06:43:11.877Z,10.20
2024-03-06T06:46:14.825Z,10.14
2024-03-06T06:49:17.162Z,11.13
2024-03-06T06:52:20.593Z,10.94
2024-03-06T06:55:25.272Z,10.91
2024-03-06T06:58:28.276Z,10.82
2024-03-06T07:01:30.615Z,9.99
2024-03-06T07:04:33.388Z,9.67
2024-03-06T07:07:39.547Z,9.91
2024-03-06T07:10:42.165Z,9.69
2024-03-06T07:13:44.642Z,9.54
2024-03-06T07:16:48.119Z,9.63
2024-03-06T07:19:50.521Z,9.53
2024-03-06T07:22:53.193Z,9.66
2024-03-06T07:25:55.751Z,9.86
2024-03-06T07:28:59.501Z,10.43
2024-03-06T07:32:02.432Z,10.63
2024-03-06T07:35:05.761Z,11.12
2024-03-06T07:38:08.263Z,11.34
2024-03-06T07:41:11.875Z,11.53
2024-03-06T07:44:16.745Z,11.00
2024-03-06T07:47:19.763Z,10.78
2024-03-06T07:50:23.144Z,10.77
2024-03-06T07:53:27.401Z,10.99
2024-03-06T07:56:29.921Z,11.51
2024-03-06T07:59:35.950Z,12.43
2024-03-06T08:02:40.587Z,13.27
2024-03-06T08:05:44.774Z,14.35
2024-03-06T08:08:47.274Z,14.51
2024-03-06T08:11:50.423Z,13.95
2024-03-06T08:14:53.541Z,14.92
2024-03-06T08:17:56.296Z,15.11
2024-03-06T08:20:58.657Z,14.13
2024-03-06T08:24:01.596Z,14.03
2024-03-06T08:27:04.431Z,13.07
2024-03-06T08:30:09.130Z,13.26
2024-03-06T08:33:12.690Z,15.17
2024-03-06T08:36:15.642Z,15.53
2024-03-06T08:39:18.068Z,15.88
2024-03-06T08:42:20.842Z,15.78
2024-03-06T08:45:24.391Z,15.70
2024-03-06T08:48:27.404Z,15.51
2024-03-06T08:51:29.920Z,16.14
2024-03-06T08:54:33.232Z,16.33
2024-03-06T08:57:36.710Z,15.42
2024-03-06T09:00:40.328Z,15.78
2024-03-06T09:03:42.788Z,16.39
2024-03-06T09:06:45.423Z,16.40
2024-03-06T09:09:47.910Z,15.32
2024-03-06T09:12:50.563Z,16.17
2024-03-06T09:15:53.009Z,17.03
2024-03-06T09:18:55.623Z,17.60
2024-03-06T09:21:58.312Z,17.60
2024-03-06T09:25:01.015Z,17.83
2024-03-06T09:28:06.292Z,17.90
2024-03-06T09:31:08.898Z,18.26
2024-03-06T09:34:13.713Z,17.49
2024-03-06T09:37:17.025Z,16.12
2024-03-06T09:40:23.956Z,14.51
2024-03-06T09:43:29.210Z,16.61
2024-03-06T09:46:33.088Z,17.06
2024-03-06T09:49:36.125Z,17.39
2024-03-06T09:52:41.411Z,17.79
2024-03-06T09:55:45.396Z,18.96
2024-03-06T09:58:48.043Z,18.67
2024-03-06T10:01:50.980Z,18.99
2024-03-06T10:04:53.759Z,19.37
2024-03-06T10:07:56.177Z,18.76
2024-03-06T10:10:59.084Z,19.15
2024-03-06T10:14:01.674Z,18.74
2024-03-06T10:17:04.789Z,18.92
2024-03-06T10:20:22.211Z,19.19
2024-03-06T10:23:31.122Z,17.48
2024-03-06T10:26:33.840Z,18.78
2024-03-06T10:29:36.651Z,18.27
2024-03-06T10:32:39.463Z,17.53
2024-03-06T10:35:44.229Z,17.27
2024-03-06T10:38:52.225Z,17.34
2024-03-06T10:41:59.182Z,17.75
2024-03-06T10:45:02.700Z,17.36
2024-03-06T10:48:07.198Z,16.79
2024-03-06T10:51:11.562Z,16.94
2024-03-06T10:54:15.256Z,15.63
2024-03-06T10:57:19.545Z,16.67
2024-03-06T11:00:23.316Z,16.64
2024-03-06T11:03:27.081Z,17.22
2024-03-06T11:06:29.915Z,16.15
2024-03-06T11:09:36.512Z,15.74
2024-03-06T11:12:40.489Z,16.30
2024-03-06T11:15:43.474Z,16.26
2024-03-06T11:18:46.513Z,16.18
2024-03-06T11:21:50.056Z,15.91
2024-03-06T11:24:52.860Z,17.06
2024-03-06T11:28:10.992Z,17.74
2024-03-06T11:31:19.841Z,16.46
2024-03-06T11:34:23.368Z,15.74
2024-03-06T11:37:26.510Z,16.01
2024-03-06T11:40:29.188Z,16.69
2024-03-06T11:43:32.354Z,15.27
2024-03-06T11:46:44.821Z,15.51
2024-03-06T11:49:47.740Z,15.32
2024-03-06T11:52:50.267Z,15.95
2024-03-06T11:55:52.956Z,16.40
2024-03-06T11:58:55.398Z,15.97
2024-03-06T12:02:05.578Z,15.72
2024-03-06T12:05:11.329Z,15.99
2024-03-06T12:08:13.831Z,15.26
2024-03-06T12:11:17.170Z,15.19
2024-03-06T12:14:21.533Z,15.43
2024-03-06T12:17:24.401Z,15.23
2024-03-06T12:20:27.028Z,14.65
2024-03-06T12:23:30.377Z,15.06
2024-03-06T12:26:33.789Z,15.55
2024-03-06T12:29:38.825Z,14.89
2024-03-06T12:32:41.802Z,15.11
2024-03-06T12:35:44.795Z,15.55
2024-03-06T12:38:55.654Z,15.69
2024-03-06T12:42:00.445Z,15.43
2024-03-06T12:45:04.778Z,15.19
2024-03-06T12:48:08.326Z,14.91
2024-03-06T12:51:11.132Z,15.47
2024-03-06T12:54:13.874Z,15.75
2024-03-06T12:57:16.624Z,15.78
2024-03-06T13:00:19.720Z,15.86
2024-03-06T13:03:22.093Z,15.60
2024-03-06T13:06:25.474Z,15.40
2024-03-06T13:09:27.790Z,15.39
2024-03-06T13:12:30.547Z,16.12
2024-03-06T13:15:32.905Z,16.15
2024-03-06T13:18:38.652Z,16.19
2024-03-06T13:21:41.093Z,15.83
2024-03-06T13:24:45.101Z,15.78
2024-03-06T13:27:49.411Z,15.56
2024-03-06T13:30:53.350Z,15.88
2024-03-06T13:33:55.759Z,15.28
2024-03-06T13:36:58.597Z,15.62
2024-03-06T13:40:01.982Z,15.34
2024-03-06T13:43:04.833Z,15.18
2024-03-06T13:46:07.618Z,15.15
2024-03-06T13:49:44.027Z,14.54
2024-03-06T13:52:46.403Z,14.57
2024-03-06T13:56:11.810Z,14.80
2024-03-06T13:59:22.169Z,14.93
2024-03-06T14:02:30.846Z,15.27
2024-03-06T14:05:33.764Z,15.23
2024-03-06T14:08:36.986Z,15.10
2024-03-06T14:11:40.558Z,14.75
2024-03-06T14:15:07.003Z,14.64
2024-03-06T14:18:11.890Z,14.54
2024-03-06T14:21:19.086Z,14.31
2024-03-06T14:24:24.856Z,13.93
2024-03-06T14:27:33.205Z,13.33
2024-03-06T14:30:39.024Z,13.22
2024-03-06T14:33:44.808Z,13.22
2024-03-06T14:36:53.508Z,13.13
2024-03-06T14:40:06.764Z,13.17
2024-03-06T14:43:22.183Z,12.30
2024-03-06T14:46:26.919Z,11.92
2024-03-06T14:49:33.901Z,11.91
2024-03-06T14:52:44.414Z,12.10
2024-03-06T14:55:53.770Z,12.21
2024-03-06T14:58:56.935Z,12.18
2024-03-06T15:02:09.496Z,12.47
2024-03-06T15:05:19.060Z,12.57
2024-03-06T15:08:22.001Z,12.68
2024-03-06T15:11:25.608Z,12.72
2024-03-06T15:14:30.004Z,12.64
2024-03-06T15:17:40.382Z,12.67
2024-03-06T15:20:48.132Z,12.85
2024-03-06T15:23:55.481Z,12.67
2024-03-06T15:27:15.823Z,13.01
2024-03-06T15:30:24.898Z,13.12
2024-03-06T15:33:28.602Z,13.23
2024-03-06T15:36:31.760Z,13.23
2024-03-06T15:39:34.460Z,13.40
2024-03-06T15:42:37.458Z,13.07
2024-03-06T15:45:40.152Z,12.78
2024-03-06T15:48:42.792Z,12.61
2024-03-06T15:51:45.546Z,12.54
2024-03-06T15:54:47.952Z,12.44
2024-03-06T15:57:50.801Z,12.49
2024-03-06T16:00:57.968Z,12.38
2024-03-06T16:04:03.250Z,12.33
2024-03-06T16:07:05.644Z,12.17
2024-03-06T16:10:09.993Z,12.07
2024-03-06T16:13:12.346Z,11.82
2024-03-06T16:16:15.080Z,11.52
2024-03-06T16:19:22.366Z,11.43
2024-03-06T16:22:27.746Z,11.17
2024-03-06T16:25:30.532Z,11.20
2024-03-06T16:28:33.215Z,11.13
2024-03-06T16:31:35.985Z,10.86
2024-03-06T16:34:40.506Z,10.69
2024-03-06T16:37:43.323Z,10.59
2024-03-06T16:40:47.698Z,10.48
2024-03-06T16:43:50.401Z,10.45
2024-03-06T16:46:53.142Z,10.47
2024-03-06T16:49:55.703Z,10.57
2024-03-06T16:52:58.359Z,10.48
2024-03-06T16:56:00.902Z,10.51
2024-03-06T16:59:04.081Z,10.56
2024-03-06T17:02:06.847Z,10.47
2024-03-06T17:05:10.041Z,10.77
2024-03-06T17:08:15.456Z,10.48
2024-03-06T17:11:19.483Z,10.25
2024-03-06T17:14:22.526Z,10.43
2024-03-06T17:17:25.354Z,10.33
2024-03-06T17:20:27.894Z,10.28
2024-03-06T17:23:31.108Z,10.19
2024-03-06T17:26:38.729Z,10.19
2024-03-06T17:29:42.288Z,10.02
2024-03-06T17:32:44.968Z,9.81
2024-03-06T17:35:49.282Z,9.93
2024-03-06T17:38:51.940Z,9.81
2024-03-06T17:41:54.711Z,9.54
2024-03-06T17:44:57.084Z,9.39
2024-03-06T17:47:59.921Z,9.35
2024-03-06T17:51:02.403Z,9.05
2024-03-06T17:54:05.203Z,8.96
2024-03-06T17:57:07.817Z,8.85
2024-03-06T18:00:17.033Z,8.77
2024-03-06T18:03:25.281Z,8.84
2024-03-06T18:06:27.987Z,8.95
2024-03-06T18:09:31.158Z,9.02
2024-03-06T18:12:34.534Z,9.16
2024-03-06T18:15:37.448Z,8.96
2024-03-06T18:18:40.229Z,8.93
2024-03-06T18:21:47.545Z,8.98
2024-03-06T18:24:50.788Z,9.28
2024-03-06T18:27:54.054Z,9.36
2024-03-06T18:30:56.691Z,9.06
2024-03-06T18:33:59.953Z,8.86
2024-03-06T18:37:04.122Z,8.69
2024-03-06T18:40:07.154Z,8.57
2024-03-06T18:43:09.910Z,8.40
2024-03-06T18:46:13.141Z,8.50
2024-03-06T18:49:20.395Z,8.53
2024-03-06T18:52:25.868Z,8.70
2024-03-06T18:55:28.608Z,8.66
2024-03-06T18:58:31.757Z,8.47
2024-03-06T19:01:35.379Z,8.40
2024-03-06T19:04:38.504Z,8.16
2024-03-06T19:07:42.703Z,8.29
2024-03-06T19:10:45.946Z,8.39
2024-03-06T19:13:48.392Z,8.29
2024-03-06T19:16:51.369Z,8.16
2024-03-06T19:19:56.561Z,8.03
2024-03-06T19:22:59.432Z,8.04
2024-03-06T19:26:03.478Z,8.14
2024-03-06T19:29:06.981Z,8.13
2024-03-06T19:32:12.520Z,8.09
2024-03-06T19:35:15.477Z,8.05
2024-03-06T19:38:20.526Z,8.14
2024-03-06T19:41:23.191Z,8.09
2024-03-06T19:44:27.924Z,8.17
2024-03-06T19:47:32.483Z,8.10
2024-03-06T19:50:35.676Z,8.06
2024-03-06T19:53:38.669Z,7.94
2024-03-06T19:56:44.685Z,7.86
2024-03-06T19:59:52.368Z,7.83
2024-03-06T20:02:55.067Z,7.91
2024-03-06T20:05:58.750Z,7.98
2024-03-06T20:09:05.527Z,8.06
2024-03-06T20:12:09.097Z,8.07
2024-03-06T20:15:11.860Z,8.07
2024-03-06T20:18:14.891Z,8.08
2024-03-06T20:21:17.670Z,8.08
2024-03-06T20:24:20.345Z,8.04
2024-03-06T20:27:23.643Z,8.11
2024-03-06T20:30:27.282Z,7.99
2024-03-06T20:33:31.371Z,8.23
2024-03-06T20:36:34.539Z,8.22
2024-03-06T20:39:37.661Z,8.12
2024-03-06T20:42:40.647Z,8.27
2024-03-06T20:45:44.876Z,8.41
2024-03-06T20:48:50.626Z,8.46
2024-03-06T20:51:52.950Z,8.43
2024-03-06T20:54:55.609Z,8.47
2024-03-06T20:57:58.662Z,8.47
2024-03-06T21:01:04.128Z,8.53
2024-03-06T21:04:07.918Z,8.28
2024-03-06T21:07:11.833Z,8.38
2024-03-06T21:10:16.193Z,8.46
2024-03-06T21:13:18.943Z,8.22
2024-03-06T21:16:22.199Z,8.22
2024-03-06T21:19:25.185Z,8.10
2024-03-06T21:22:28.503Z,8.17
